createdAt,value
2019-06-26T00:01:06.280Z,23.71
2019-06-26T00:03:33.739Z,23.73
2019-06-26T00:06:01.471Z,23.57
2019-06-26T00:08:28.744Z,23.34
2019-06-26T00:10:56.389Z,23.42
2019-06-26T00:13:27.010Z,23.21
2019-06-26T00:15:54.817Z,23.17
2019-06-26T00:18:22.478Z,23.12
2019-06-26T00:20:49.619Z,23.15
2019-06-26T00:23:16.878Z,23.01
2019-06-26T00:25:44.226Z,23.17
2019-06-26T00:28:11.627Z,23.27
2019-06-26T00:30:40.863Z,23.34
2019-06-26T00:33:08.068Z,23.26
2019-06-26T00:35:35.155Z,23.20
2019-06-26T00:38:02.811Z,23.08
2019-06-26T00:40:30.736Z,23.07
2019-06-26T00:42:58.303Z,22.98
2019-06-26T00:45:25.517Z,22.98
2019-06-26T00:47:52.724Z,23.10
2019-06-26T00:50:20.261Z,23.16
2019-06-26T00:52:48.170Z,23.08
2019-06-26T00:55:15.510Z,23.00
2019-06-26T00:57:42.921Z,23.03
2019-06-26T01:00:11.299Z,23.00
2019-06-26T01:02:38.449Z,22.89
2019-06-26T01:05:08.399Z,22.89
2019-06-26T01:07:36.061Z,22.86
2019-06-26T01:10:07.588Z,22.80
2019-06-26T01:12:34.971Z,22.83
2019-06-26T01:17:30.969Z,22.75
2019-06-26T01:19:58.187Z,22.87
2019-06-26T01:22:25.344Z,22.85
2019-06-26T01:24:52.942Z,22.96
2019-06-26T01:27:20.179Z,22.77
2019-06-26T01:29:47.915Z,22.55
2019-06-26T01:32:16.628Z,22.47
2019-06-26T01:34:43.765Z,22.67
2019-06-26T01:37:11.400Z,22.79
2019-06-26T01:39:39.002Z,22.54
2019-06-26T01:42:06.252Z,22.53
2019-06-26T01:44:33.503Z,22.49
2019-06-26T01:47:00.861Z,22.53
2019-06-26T01:49:28.072Z,22.47
2019-06-26T01:51:55.661Z,22.60
2019-06-26T01:54:23.365Z,22.55
2019-06-26T01:56:50.589Z,22.43
2019-06-26T01:59:17.834Z,22.53
2019-06-26T02:01:50.247Z,22.44
2019-06-26T02:04:17.433Z,22.42
2019-06-26T02:06:44.564Z,22.48
2019-06-26T02:09:11.746Z,22.35
2019-06-26T02:11:39.013Z,22.39
2019-06-26T02:14:06.426Z,22.39
2019-06-26T02:16:33.760Z,22.42
2019-06-26T02:19:05.990Z,22.10
2019-06-26T02:21:33.206Z,22.23
2019-06-26T02:24:00.779Z,22.30
2019-06-26T02:26:28.396Z,22.41
2019-06-26T02:28:56.066Z,22.31
2019-06-26T02:31:23.697Z,22.41
2019-06-26T02:33:50.980Z,22.43
2019-06-26T02:36:18.336Z,22.22
2019-06-26T02:38:45.545Z,22.25
2019-06-26T02:41:13.074Z,22.17
2019-06-26T02:43:40.251Z,22.23
2019-06-26T02:46:07.781Z,22.32
2019-06-26T02:48:35.475Z,22.22
2019-06-26T02:51:03.024Z,22.10
2019-06-26T02:53:30.188Z,22.09
2019-06-26T02:55:57.901Z,22.10
2019-06-26T02:58:25.209Z,21.89
2019-06-26T03:00:53.476Z,21.98
2019-06-26T03:03:20.650Z,21.98
2019-06-26T03:05:48.375Z,21.93
2019-06-26T03:08:15.885Z,21.86
2019-06-26T03:10:43.156Z,22.00
2019-06-26T03:13:10.451Z,21.94
2019-06-26T03:15:37.602Z,21.83
2019-06-26T03:18:04.909Z,21.90
2019-06-26T03:20:38.556Z,21.98
2019-06-26T03:23:05.689Z,22.01
2019-06-26T03:25:33.065Z,21.85
2019-06-26T03:28:00.482Z,21.69
2019-06-26T03:30:27.691Z,21.69
2019-06-26T03:32:55.316Z,21.83
2019-06-26T03:35:22.491Z,21.83
2019-06-26T03:37:49.727Z,21.89
2019-06-26T03:40:17.100Z,21.82
2019-06-26T03:42:44.611Z,21.73
2019-06-26T03:45:25.130Z,21.68
2019-06-26T03:47:41.229Z,21.70
2019-06-26T03:50:09.783Z,21.66
2019-06-26T03:52:36.925Z,21.74
2019-06-26T03:55:04.492Z,21.72
2019-06-26T03:57:35.161Z,21.67
2019-06-26T04:00:00.781Z,21.62
2019-06-26T04:02:28.135Z,21.52
2019-06-26T04:04:55.350Z,21.59
2019-06-26T04:07:22.584Z,21.69
2019-06-26T04:09:49.964Z,21.68
2019-06-26T04:12:17.088Z,21.56
2019-06-26T04:14:44.670Z,21.58
2019-06-26T04:17:12.018Z,21.41
2019-06-26T04:19:39.301Z,21.33
2019-06-26T04:22:06.916Z,21.39
2019-06-26T04:24:34.543Z,21.47
2019-06-26T04:27:01.933Z,21.48
2019-06-26T04:29:29.970Z,21.52
2019-06-26T04:31:57.155Z,21.56
2019-06-26T04:34:24.362Z,21.61
2019-06-26T04:36:51.935Z,21.60
2019-06-26T04:39:19.085Z,21.62
2019-06-26T04:41:46.548Z,21.71
2019-06-26T04:44:13.739Z,21.75
2019-06-26T04:46:41.175Z,21.82
2019-06-26T04:49:09.074Z,21.95
2019-06-26T04:51:36.236Z,22.01
2019-06-26T04:54:03.470Z,21.94
2019-06-26T04:56:31.211Z,21.99
2019-06-26T04:58:58.406Z,22.08
2019-06-26T05:01:25.541Z,22.04
2019-06-26T05:03:52.682Z,22.10
2019-06-26T05:06:19.946Z,22.20
2019-06-26T05:08:47.096Z,22.24
2019-06-26T05:11:14.227Z,22.22
2019-06-26T05:13:41.530Z,22.26
2019-06-26T05:16:15.048Z,22.30
2019-06-26T05:18:38.651Z,22.33
2019-06-26T05:21:06.004Z,22.38
2019-06-26T05:23:33.166Z,22.45
2019-06-26T05:26:00.306Z,22.47
2019-06-26T05:28:27.576Z,22.51
2019-06-26T05:30:55.154Z,22.53
2019-06-26T05:33:22.705Z,22.58
2019-06-26T05:35:50.217Z,22.62
2019-06-26T05:38:17.314Z,22.57
2019-06-26T05:40:44.436Z,22.62
2019-06-26T05:43:13.473Z,22.71
2019-06-26T05:45:41.011Z,22.80
2019-06-26T05:48:08.128Z,22.89
2019-06-26T05:50:35.345Z,22.95
2019-06-26T05:53:03.803Z,22.98
2019-06-26T05:55:31.243Z,23.02
2019-06-26T05:57:58.371Z,23.04
2019-06-26T06:00:25.627Z,23.13
2019-06-26T06:02:54.128Z,23.24
2019-06-26T06:05:22.099Z,23.30
2019-06-26T06:07:49.228Z,23.38
2019-06-26T06:10:17.158Z,23.43
2019-06-26T06:12:44.471Z,23.51
2019-06-26T06:15:13.564Z,23.57
2019-06-26T06:17:40.689Z,23.62
2019-06-26T06:20:09.151Z,23.69
2019-06-26T06:22:36.706Z,23.75
2019-06-26T06:25:06.269Z,23.84
2019-06-26T06:27:33.861Z,23.91
2019-06-26T06:30:01.774Z,23.97
2019-06-26T06:32:28.920Z,24.01
2019-06-26T06:34:56.353Z,24.06
2019-06-26T06:37:23.891Z,24.09
2019-06-26T06:39:51.373Z,24.13
2019-06-26T06:42:20.965Z,24.24
2019-06-26T06:44:48.296Z,24.34
2019-06-26T06:47:15.720Z,24.43
2019-06-26T06:49:42.892Z,24.46
2019-06-26T06:52:10.114Z,24.53
2019-06-26T06:54:37.615Z,24.65
2019-06-26T06:57:04.922Z,24.75
2019-06-26T06:59:32.201Z,24.87
2019-06-26T07:01:59.748Z,24.99
2019-06-26T07:04:27.235Z,25.05
2019-06-26T07:06:54.468Z,25.17
2019-06-26T07:09:21.583Z,25.24
2019-06-26T07:11:49.475Z,25.34
2019-06-26T07:14:18.024Z,25.44
2019-06-26T07:16:45.233Z,25.53
2019-06-26T07:19:12.303Z,25.61
2019-06-26T07:21:39.557Z,25.66
2019-06-26T07:24:06.802Z,25.77
2019-06-26T07:26:34.051Z,25.86
2019-06-26T07:29:01.290Z,26.00
2019-06-26T07:31:29.072Z,26.07
2019-06-26T07:33:56.521Z,26.20
2019-06-26T07:36:24.085Z,26.36
2019-06-26T07:38:51.364Z,26.49
2019-06-26T07:41:18.734Z,26.56
2019-06-26T07:43:46.207Z,26.76
2019-06-26T07:46:13.435Z,26.94
2019-06-26T07:48:40.585Z,27.08
2019-06-26T07:51:08.515Z,27.14
2019-06-26T07:53:37.623Z,27.15
2019-06-26T07:56:06.785Z,27.19
2019-06-26T07:58:34.316Z,27.27
2019-06-26T08:01:01.856Z,27.38
2019-06-26T08:03:33.511Z,27.44
2019-06-26T08:06:00.923Z,27.50
2019-06-26T08:08:28.383Z,27.63
2019-06-26T08:10:55.938Z,27.72
2019-06-26T08:13:23.071Z,27.80
2019-06-26T08:15:50.584Z,27.90
2019-06-26T08:18:17.734Z,27.99
2019-06-26T08:20:55.377Z,28.10
2019-06-26T08:23:14.299Z,28.16
2019-06-26T08:25:41.468Z,28.21
2019-06-26T08:28:08.821Z,28.32
2019-06-26T08:30:36.277Z,28.40
2019-06-26T08:33:03.646Z,28.49
2019-06-26T08:35:30.758Z,28.55
2019-06-26T08:38:09.361Z,28.65
2019-06-26T08:40:27.563Z,28.75
2019-06-26T08:42:55.035Z,28.87
2019-06-26T08:45:22.879Z,28.98
2019-06-26T08:47:50.412Z,29.06
2019-06-26T08:50:18.165Z,29.10
2019-06-26T08:52:45.293Z,29.17
2019-06-26T08:55:12.611Z,29.27
2019-06-26T08:57:39.822Z,29.33
2019-06-26T09:00:09.751Z,29.46
2019-06-26T09:02:37.320Z,29.52
2019-06-26T09:05:05.327Z,29.66
2019-06-26T09:07:32.857Z,29.72
2019-06-26T09:10:00.016Z,29.76
2019-06-26T09:12:27.257Z,29.89
2019-06-26T09:14:54.565Z,29.95
2019-06-26T09:17:21.837Z,30.03
2019-06-26T09:19:48.978Z,30.11
2019-06-26T09:22:16.552Z,30.34
2019-06-26T09:24:44.011Z,30.44
2019-06-26T09:27:14.618Z,30.44
2019-06-26T09:29:40.266Z,30.57
2019-06-26T09:32:07.503Z,30.73
2019-06-26T09:34:34.770Z,30.87
2019-06-26T09:37:02.000Z,30.93
2019-06-26T09:39:29.362Z,30.93
2019-06-26T09:41:56.564Z,30.98
2019-06-26T09:44:23.723Z,31.06
2019-06-26T09:46:51.055Z,31.28
2019-06-26T09:49:18.313Z,31.36
2019-06-26T09:51:45.515Z,31.45
2019-06-26T09:54:12.655Z,31.44
2019-06-26T09:56:39.896Z,31.43
2019-06-26T09:59:07.070Z,31.65
2019-06-26T10:01:34.209Z,31.83
2019-06-26T10:04:01.457Z,31.83
2019-06-26T10:06:28.767Z,31.89
2019-06-26T10:08:56.053Z,32.02
2019-06-26T10:11:23.367Z,32.08
2019-06-26T10:13:50.838Z,32.16
2019-06-26T10:16:18.087Z,32.07
2019-06-26T10:18:45.315Z,32.15
2019-06-26T10:21:12.467Z,32.35
2019-06-26T10:23:39.699Z,32.49
2019-06-26T10:26:07.857Z,32.59
2019-06-26T10:28:34.978Z,32.61
2019-06-26T10:31:02.292Z,32.72
2019-06-26T10:33:29.425Z,32.76
2019-06-26T10:35:56.780Z,32.72
2019-06-26T10:38:24.279Z,32.77
2019-06-26T10:40:51.902Z,32.80
2019-06-26T10:43:19.845Z,32.90
2019-06-26T10:45:47.598Z,33.07
2019-06-26T10:48:16.335Z,33.07
2019-06-26T10:50:51.139Z,33.26
2019-06-26T10:53:12.794Z,33.18
2019-06-26T10:55:40.121Z,33.37
2019-06-26T10:58:07.235Z,33.41
2019-06-26T11:00:34.589Z,33.31
2019-06-26T11:03:02.488Z,33.53
2019-06-26T11:05:30.077Z,33.71
2019-06-26T11:07:57.276Z,33.77
2019-06-26T11:10:24.626Z,33.80
2019-06-26T11:12:54.460Z,33.88
2019-06-26T11:15:22.477Z,33.94
2019-06-26T11:17:49.712Z,34.06
2019-06-26T11:20:17.425Z,34.22
2019-06-26T11:22:44.632Z,34.41
2019-06-26T11:25:12.206Z,34.51
2019-06-26T11:27:39.293Z,34.59
2019-06-26T11:30:09.438Z,34.60
2019-06-26T11:32:37.055Z,34.66
2019-06-26T11:35:06.117Z,34.73
2019-06-26T11:37:33.324Z,34.91
2019-06-26T11:40:00.585Z,35.02
2019-06-26T11:42:27.833Z,35.06
2019-06-26T11:44:55.108Z,35.14
2019-06-26T11:47:22.443Z,35.35
2019-06-26T11:49:59.262Z,35.54
2019-06-26T11:52:19.288Z,35.66
2019-06-26T11:55:01.418Z,35.71
2019-06-26T11:57:15.727Z,35.82
2019-06-26T11:59:43.067Z,35.89
2019-06-26T12:02:10.546Z,35.93
2019-06-26T12:04:37.959Z,36.09
2019-06-26T12:07:05.546Z,36.09
2019-06-26T12:09:33.195Z,36.21
2019-06-26T12:12:00.965Z,36.33
2019-06-26T12:14:33.380Z,36.14
2019-06-26T12:17:00.884Z,36.18
2019-06-26T12:19:27.985Z,36.32
2019-06-26T12:21:55.170Z,36.48
2019-06-26T12:24:22.275Z,36.58
2019-06-26T12:26:49.529Z,36.64
2019-06-26T12:29:16.751Z,36.73
2019-06-26T12:31:44.001Z,36.85
2019-06-26T12:34:11.147Z,36.96
2019-06-26T12:36:38.518Z,37.01
2019-06-26T12:39:06.313Z,37.12
2019-06-26T12:41:33.690Z,37.02
2019-06-26T12:44:00.905Z,36.99
2019-06-26T12:46:28.589Z,37.09
2019-06-26T12:48:56.310Z,36.99
2019-06-26T12:51:23.696Z,37.01
2019-06-26T12:53:51.020Z,37.11
2019-06-26T12:56:19.043Z,37.33
2019-06-26T12:58:46.467Z,37.43
2019-06-26T13:01:14.122Z,37.38
2019-06-26T13:03:41.436Z,37.60
2019-06-26T13:06:08.896Z,37.59
2019-06-26T13:08:36.452Z,37.68
2019-06-26T13:11:03.671Z,37.82
2019-06-26T13:13:31.099Z,37.73
2019-06-26T13:15:58.273Z,37.78
2019-06-26T13:18:27.637Z,37.84
2019-06-26T13:20:54.757Z,37.65
2019-06-26T13:23:22.355Z,37.65
2019-06-26T13:25:49.556Z,37.57
2019-06-26T13:28:17.133Z,37.75
2019-06-26T13:30:44.358Z,37.87
2019-06-26T13:33:11.952Z,37.77
2019-06-26T13:35:39.199Z,37.37
2019-06-26T13:38:06.430Z,37.30
2019-06-26T13:40:33.840Z,37.54
2019-06-26T13:43:00.990Z,37.94
2019-06-26T13:45:28.192Z,37.95
2019-06-26T13:47:55.584Z,38.02
2019-06-26T13:50:22.907Z,38.08
2019-06-26T13:52:50.267Z,38.13
2019-06-26T13:55:18.096Z,38.03
2019-06-26T13:57:45.746Z,37.98
2019-06-26T14:00:13.571Z,38.21
2019-06-26T14:02:41.731Z,38.19
2019-06-26T14:05:09.385Z,38.11
2019-06-26T14:07:36.766Z,37.95
2019-06-26T14:10:08.046Z,38.03
2019-06-26T14:12:35.451Z,38.04
2019-06-26T14:15:04.757Z,37.95
2019-06-26T14:17:32.246Z,37.91
2019-06-26T14:19:59.368Z,37.88
2019-06-26T14:22:26.890Z,37.78
2019-06-26T14:24:54.405Z,37.81
2019-06-26T14:27:21.626Z,37.92
2019-06-26T14:29:48.854Z,38.05
2019-06-26T14:32:16.014Z,37.95
2019-06-26T14:34:43.504Z,37.69
2019-06-26T14:37:10.621Z,37.68
2019-06-26T14:39:40.870Z,37.92
2019-06-26T14:42:07.225Z,37.81
2019-06-26T14:44:34.591Z,37.69
2019-06-26T14:47:02.165Z,37.59
2019-06-26T14:49:29.707Z,37.49
2019-06-26T14:51:56.860Z,37.41
2019-06-26T14:54:23.999Z,37.39
2019-06-26T14:56:51.202Z,37.45
2019-06-26T14:59:20.555Z,37.47
2019-06-26T15:01:47.966Z,37.55
2019-06-26T15:04:15.593Z,37.50
2019-06-26T15:06:42.761Z,37.59
2019-06-26T15:09:09.999Z,37.61
2019-06-26T15:11:37.102Z,37.77
2019-06-26T15:14:04.762Z,38.02
2019-06-26T15:16:31.926Z,37.81
2019-06-26T15:18:59.171Z,37.54
2019-06-26T15:21:28.026Z,37.70
2019-06-26T15:23:55.212Z,37.83
2019-06-26T15:26:22.308Z,37.62
2019-06-26T15:28:49.881Z,37.41
2019-06-26T15:31:17.112Z,37.35
2019-06-26T15:33:44.343Z,37.36
2019-06-26T15:36:11.594Z,37.45
2019-06-26T15:38:38.742Z,37.51
2019-06-26T15:41:06.162Z,37.74
2019-06-26T15:43:33.839Z,38.69
2019-06-26T15:46:01.516Z,39.72
2019-06-26T15:48:28.897Z,40.43
2019-06-26T15:50:56.489Z,40.48
2019-06-26T15:53:23.620Z,40.91
2019-06-26T15:55:50.735Z,41.20
2019-06-26T15:58:18.243Z,41.30
2019-06-26T16:00:45.601Z,41.34
2019-06-26T16:03:12.835Z,39.95
2019-06-26T16:05:42.576Z,38.24
2019-06-26T16:08:09.839Z,37.15
2019-06-26T16:10:37.114Z,36.59
2019-06-26T16:13:04.292Z,36.21
2019-06-26T16:15:31.896Z,36.02
2019-06-26T16:18:04.598Z,35.85
2019-06-26T16:20:32.200Z,35.78
2019-06-26T16:22:59.338Z,35.64
2019-06-26T16:25:27.903Z,35.56
2019-06-26T16:28:04.643Z,35.48
2019-06-26T16:30:24.261Z,35.37
2019-06-26T16:32:51.386Z,35.27
2019-06-26T16:35:18.549Z,35.20
2019-06-26T16:37:45.720Z,35.13
2019-06-26T16:40:13.130Z,35.04
2019-06-26T16:42:40.343Z,34.97
2019-06-26T16:45:07.984Z,34.87
2019-06-26T16:47:35.171Z,34.83
2019-06-26T16:50:04.095Z,34.73
2019-06-26T16:52:47.510Z,34.68
2019-06-26T16:55:00.249Z,34.69
2019-06-26T16:57:29.500Z,34.61
2019-06-26T17:00:08.750Z,34.62
2019-06-26T17:02:25.860Z,34.52
2019-06-26T17:04:53.464Z,34.40
2019-06-26T17:07:20.573Z,34.36
2019-06-26T17:09:47.719Z,34.32
2019-06-26T17:12:15.390Z,34.28
2019-06-26T17:14:42.640Z,34.27
2019-06-26T17:17:09.809Z,34.16
2019-06-26T17:19:36.927Z,34.15
2019-06-26T17:22:04.067Z,34.07
2019-06-26T17:24:31.668Z,34.06
2019-06-26T17:26:59.561Z,33.97
2019-06-26T17:29:26.810Z,33.96
2019-06-26T17:31:54.320Z,33.93
2019-06-26T17:34:21.412Z,33.95
2019-06-26T17:36:48.676Z,33.97
2019-06-26T17:39:15.863Z,33.96
2019-06-26T17:41:44.181Z,33.84
2019-06-26T17:44:11.610Z,33.72
2019-06-26T17:46:39.161Z,33.69
2019-06-26T17:49:06.282Z,33.61
2019-06-26T17:51:33.924Z,33.55
2019-06-26T17:54:01.354Z,33.43
2019-06-26T17:56:28.609Z,33.46
2019-06-26T17:58:55.800Z,33.38
2019-06-26T18:01:23.097Z,33.38
2019-06-26T18:03:50.600Z,33.35
2019-06-26T18:06:17.749Z,33.28
2019-06-26T18:08:47.408Z,33.15
2019-06-26T18:11:14.725Z,33.11
2019-06-26T18:13:41.933Z,33.00
2019-06-26T18:16:09.426Z,32.86
2019-06-26T18:18:36.887Z,32.80
2019-06-26T18:21:04.732Z,32.78
2019-06-26T18:23:37.694Z,32.50
2019-06-26T18:26:12.268Z,32.48
2019-06-26T18:28:30.039Z,32.14
2019-06-26T18:30:57.309Z,31.94
2019-06-26T18:33:24.761Z,31.78
2019-06-26T18:35:52.029Z,31.71
2019-06-26T18:38:19.097Z,31.69
2019-06-26T18:40:46.268Z,31.67
2019-06-26T18:43:15.131Z,31.69
2019-06-26T18:45:42.607Z,31.58
2019-06-26T18:48:09.723Z,31.35
2019-06-26T18:50:36.963Z,31.05
2019-06-26T18:53:04.174Z,30.92
2019-06-26T18:55:31.713Z,30.83
2019-06-26T18:57:58.986Z,30.60
2019-06-26T19:00:26.248Z,30.58
2019-06-26T19:02:53.853Z,30.44
2019-06-26T19:05:20.990Z,30.33
2019-06-26T19:07:48.557Z,30.24
2019-06-26T19:10:16.128Z,30.27
2019-06-26T19:12:43.389Z,30.33
2019-06-26T19:15:11.228Z,30.46
2019-06-26T19:17:41.451Z,30.41
2019-06-26T19:20:09.570Z,30.23
2019-06-26T19:22:36.921Z,29.90
2019-06-26T19:25:08.437Z,29.73
2019-06-26T19:27:35.704Z,29.84
2019-06-26T19:30:06.912Z,30.00
2019-06-26T19:32:37.456Z,30.05
2019-06-26T19:35:20.244Z,30.12
2019-06-26T19:37:33.839Z,30.05
2019-06-26T19:40:01.081Z,29.83
2019-06-26T19:42:29.342Z,29.64
2019-06-26T19:44:56.813Z,29.46
2019-06-26T19:47:25.422Z,29.47
2019-06-26T19:49:52.854Z,29.35
2019-06-26T19:52:20.006Z,29.29
2019-06-26T19:54:49.285Z,29.30
2019-06-26T19:57:17.075Z,29.33
2019-06-26T19:59:44.608Z,29.32
2019-06-26T20:02:11.861Z,29.23
2019-06-26T20:04:39.470Z,29.16
2019-06-26T20:07:08.810Z,29.07
2019-06-26T20:09:35.950Z,28.92
2019-06-26T20:12:03.172Z,28.88
2019-06-26T20:14:30.700Z,28.72
2019-06-26T20:16:57.983Z,28.72
2019-06-26T20:19:25.236Z,28.81
2019-06-26T20:21:55.026Z,28.68
2019-06-26T20:24:22.167Z,28.67
2019-06-26T20:26:49.313Z,28.45
2019-06-26T20:29:16.479Z,28.44
2019-06-26T20:31:43.630Z,28.45
2019-06-26T20:34:10.766Z,28.42
2019-06-26T20:36:37.898Z,28.29
2019-06-26T20:39:05.276Z,28.37
2019-06-26T20:41:32.762Z,28.52
2019-06-26T20:44:00.500Z,28.39
2019-06-26T20:46:27.742Z,28.37
2019-06-26T20:48:54.897Z,28.38
2019-06-26T20:51:22.054Z,28.40
2019-06-26T20:53:49.205Z,28.41
2019-06-26T20:56:16.375Z,28.42
2019-06-26T20:58:43.484Z,28.43
2019-06-26T21:01:10.608Z,28.29
2019-06-26T21:03:37.786Z,28.22
2019-06-26T21:06:05.321Z,28.13
2019-06-26T21:08:32.821Z,27.99
2019-06-26T21:11:00.816Z,28.04
2019-06-26T21:13:28.497Z,27.90
2019-06-26T21:15:55.581Z,27.86
2019-06-26T21:18:22.759Z,27.83
2019-06-26T21:20:49.903Z,27.73
2019-06-26T21:23:18.873Z,27.71
2019-06-26T21:25:46.264Z,27.78
2019-06-26T21:28:13.822Z,27.75
2019-06-26T21:30:40.986Z,27.82
2019-06-26T21:33:08.283Z,27.53
2019-06-26T21:35:35.409Z,27.41
2019-06-26T21:38:02.789Z,27.28
2019-06-26T21:40:29.889Z,27.15
2019-06-26T21:42:57.458Z,27.19
2019-06-26T21:45:24.546Z,27.30
2019-06-26T21:47:51.818Z,27.33
2019-06-26T21:50:19.033Z,27.35
2019-06-26T21:52:46.687Z,27.34
2019-06-26T21:55:14.816Z,27.25
2019-06-26T21:57:42.052Z,27.10
2019-06-26T22:00:10.115Z,27.07
2019-06-26T22:02:37.496Z,26.89
2019-06-26T22:05:05.465Z,26.99
2019-06-26T22:07:33.241Z,26.87
2019-06-26T22:10:00.431Z,26.90
2019-06-26T22:12:27.727Z,26.84
2019-06-26T22:14:54.846Z,26.84
2019-06-26T22:17:22.117Z,26.90
2019-06-26T22:19:49.346Z,26.97
2019-06-26T22:22:16.831Z,27.04
2019-06-26T22:24:44.060Z,26.99
2019-06-26T22:27:13.113Z,26.98
2019-06-26T22:29:40.656Z,26.78
2019-06-26T22:32:07.797Z,26.55
2019-06-26T22:34:35.054Z,26.26
2019-06-26T22:37:02.244Z,26.21
2019-06-26T22:39:29.413Z,26.23
2019-06-26T22:41:56.736Z,26.35
2019-06-26T22:44:23.967Z,26.35
2019-06-26T22:46:51.131Z,26.36
2019-06-26T22:49:18.307Z,26.33
2019-06-26T22:51:45.428Z,26.24
2019-06-26T22:54:12.579Z,26.17
2019-06-26T22:56:39.727Z,26.18
2019-06-26T22:59:06.887Z,26.37
2019-06-26T23:01:33.998Z,26.44
2019-06-26T23:04:03.946Z,26.49
2019-06-26T23:06:31.189Z,26.38
2019-06-26T23:08:58.498Z,26.13
2019-06-26T23:11:25.649Z,26.12
2019-06-26T23:13:52.802Z,26.00
2019-06-26T23:16:19.996Z,25.99
2019-06-26T23:18:47.155Z,25.91
2019-06-26T23:21:14.352Z,25.83
2019-06-26T23:23:41.469Z,25.90
2019-06-26T23:26:23.041Z,25.83
2019-06-26T23:28:37.648Z,25.98
2019-06-26T23:31:07.194Z,25.94
2019-06-26T23:33:34.397Z,25.84
2019-06-26T23:36:01.517Z,25.84
2019-06-26T23:38:28.659Z,25.83
2019-06-26T23:40:55.907Z,25.76
2019-06-26T23:43:23.090Z,25.78
2019-06-26T23:45:50.654Z,25.64
2019-06-26T23:48:18.155Z,25.54
2019-06-26T23:50:45.499Z,25.58
2019-06-26T23:53:12.793Z,25.51
2019-06-26T23:55:40.106Z,25.25
2019-06-26T23:58:07.719Z,25.26
